createdAt,value
2018-01-18T05:00:48.388Z,0
2018-01-18T05:01:13.891Z,0
2018-01-18T05:01:39.392Z,0
2018-01-18T05:02:04.842Z,0
2018-01-18T05:03:33.898Z,0
2018-01-18T05:03:59.367Z,0
2018-01-18T05:04:24.860Z,0
2018-01-18T05:04:50.392Z,0
2018-01-18T05:05:15.838Z,0
2018-01-18T05:05:41.315Z,0
2018-01-18T05:06:06.809Z,0
2018-01-18T05:06:32.300Z,0
2018-01-18T05:07:46.086Z,0
2018-01-18T05:08:11.578Z,0
2018-01-18T05:08:37.058Z,0
2018-01-18T05:09:02.553Z,0
2018-01-18T05:09:28.050Z,0
2018-01-18T05:09:53.545Z,0
2018-01-18T05:10:19.027Z,0
2018-01-18T05:10:44.544Z,0
2018-01-18T05:11:10.047Z,0
2018-01-18T05:11:35.536Z,0
2018-01-18T05:12:01.062Z,0
2018-01-18T05:12:26.518Z,0
2018-01-18T05:12:52.047Z,0
2018-01-18T05:13:17.566Z,0
2018-01-18T05:13:43.056Z,0
2018-01-18T05:14:08.502Z,0
2018-01-18T05:15:17.198Z,0
2018-01-18T05:15:42.709Z,0
2018-01-18T05:16:08.192Z,0
2018-01-18T05:16:33.674Z,0
2018-01-18T05:16:59.131Z,0
2018-01-18T05:17:24.634Z,0
2018-01-18T05:17:50.102Z,0
2018-01-18T05:18:15.604Z,0
2018-01-18T05:18:41.077Z,0
2018-01-18T05:19:06.572Z,0
2018-01-18T05:20:21.348Z,0
2018-01-18T05:20:46.825Z,0
2018-01-18T05:21:12.380Z,0
2018-01-18T05:21:37.864Z,0
2018-01-18T05:22:03.341Z,0
2018-01-18T05:22:28.821Z,0
2018-01-18T05:22:54.382Z,0
2018-01-18T05:23:19.861Z,0
2018-01-18T05:24:38.783Z,0
2018-01-18T05:25:04.280Z,0
2018-01-18T05:25:29.822Z,0
2018-01-18T05:25:55.259Z,0
2018-01-18T05:26:20.752Z,0
2018-01-18T05:26:46.259Z,0
2018-01-18T05:27:11.734Z,0
2018-01-18T05:27:37.209Z,0
2018-01-18T05:29:01.197Z,0
2018-01-18T05:29:26.708Z,0
2018-01-18T05:29:52.204Z,0
2018-01-18T05:30:17.660Z,0
2018-01-18T05:30:43.153Z,0
2018-01-18T05:31:08.645Z,0
2018-01-18T05:31:34.121Z,0
2018-01-18T05:31:59.631Z,0
2018-01-18T05:32:25.134Z,0
2018-01-18T05:32:50.612Z,0
2018-01-18T05:33:16.135Z,0
2018-01-18T05:33:41.664Z,0
2018-01-18T05:34:07.115Z,0
2018-01-18T05:34:32.604Z,0
2018-01-18T05:34:58.077Z,0
2018-01-18T05:35:23.581Z,0
2018-01-18T05:35:49.059Z,0
2018-01-18T05:37:02.841Z,0
2018-01-18T05:37:28.328Z,0
2018-01-18T05:37:53.834Z,0
2018-01-18T05:38:19.292Z,0
2018-01-18T05:38:44.766Z,0
2018-01-18T05:39:10.251Z,0
2018-01-18T05:39:35.724Z,0
2018-01-18T05:40:01.176Z,0
2018-01-18T05:40:26.675Z,0
2018-01-18T05:40:52.130Z,0
2018-01-18T05:41:17.627Z,0
2018-01-18T05:41:43.085Z,0
2018-01-18T05:42:51.779Z,0
2018-01-18T05:43:17.295Z,0
2018-01-18T05:43:42.774Z,0
2018-01-18T05:44:08.269Z,0
2018-01-18T05:44:33.724Z,0
2018-01-18T05:44:59.202Z,0
2018-01-18T05:45:24.739Z,0
2018-01-18T05:45:50.218Z,0
2018-01-18T05:46:15.748Z,0
2018-01-18T05:46:41.306Z,0
2018-01-18T05:47:06.791Z,0
2018-01-18T05:47:32.293Z,0
2018-01-18T05:47:57.751Z,0
2018-01-18T05:48:23.226Z,0
2018-01-18T05:48:48.718Z,0
2018-01-18T05:49:14.203Z,0
2018-01-18T05:49:39.741Z,0
2018-01-18T05:50:05.210Z,0
2018-01-18T05:51:34.286Z,0
2018-01-18T05:51:59.793Z,0
2018-01-18T05:52:25.289Z,0
2018-01-18T05:52:50.923Z,0
2018-01-18T05:53:16.403Z,0
2018-01-18T05:53:43.644Z,0
2018-01-18T05:54:57.394Z,0
2018-01-18T05:55:22.892Z,0
2018-01-18T05:55:48.375Z,0
2018-01-18T05:56:13.872Z,0
2018-01-18T05:56:39.370Z,0
2018-01-18T05:57:04.856Z,0
2018-01-18T05:57:30.324Z,0
2018-01-18T05:57:55.814Z,0
2018-01-18T05:58:21.295Z,0
2018-01-18T05:58:46.834Z,0
2018-01-18T05:59:12.278Z,0
2018-01-18T05:59:37.810Z,0
2018-01-18T06:00:03.305Z,0
2018-01-18T06:00:28.757Z,0
2018-01-18T06:00:54.269Z,0
2018-01-18T06:01:19.718Z,0
2018-01-18T06:01:45.197Z,0
2018-01-18T06:02:59.381Z,0
2018-01-18T06:03:24.845Z,0
2018-01-18T06:03:50.355Z,0
2018-01-18T06:04:15.834Z,0
2018-01-18T06:04:41.336Z,0
2018-01-18T06:05:06.779Z,0
2018-01-18T06:05:32.270Z,0
2018-01-18T06:05:57.744Z,0
2018-01-18T06:06:23.224Z,0
2018-01-18T06:06:48.714Z,0
2018-01-18T06:07:14.179Z,0
2018-01-18T06:07:39.659Z,0
2018-01-18T06:08:05.154Z,0
2018-01-18T06:08:30.717Z,0
2018-01-18T06:08:56.185Z,0
2018-01-18T06:09:21.680Z,0
2018-01-18T06:09:47.160Z,0
2018-01-18T06:10:12.651Z,0
2018-01-18T06:10:38.153Z,0
2018-01-18T06:11:03.671Z,0
2018-01-18T06:11:29.190Z,0
2018-01-18T06:11:54.806Z,0
2018-01-18T06:12:20.258Z,0
2018-01-18T06:12:45.780Z,0
2018-01-18T06:13:11.246Z,0
2018-01-18T06:14:30.192Z,0
2018-01-18T06:14:55.736Z,0
2018-01-18T06:15:21.249Z,0
2018-01-18T06:15:46.730Z,0
2018-01-18T06:16:12.292Z,0
2018-01-18T06:16:37.732Z,0
2018-01-18T06:17:03.241Z,0
2018-01-18T06:17:28.728Z,0
2018-01-18T06:18:52.727Z,0
2018-01-18T06:19:18.214Z,0
2018-01-18T06:19:43.702Z,0
2018-01-18T06:20:09.189Z,0
2018-01-18T06:20:34.673Z,0
2018-01-18T06:21:00.143Z,0
2018-01-18T06:21:25.615Z,0
2018-01-18T06:21:51.101Z,0
2018-01-18T06:22:16.576Z,0
2018-01-18T06:22:42.030Z,0
2018-01-18T06:23:07.532Z,0
2018-01-18T06:24:31.572Z,0
2018-01-18T06:24:57.076Z,0
2018-01-18T06:25:22.546Z,0
2018-01-18T06:25:48.013Z,0
2018-01-18T06:26:13.485Z,0
2018-01-18T06:26:38.967Z,0
2018-01-18T06:27:04.458Z,0
2018-01-18T06:27:29.970Z,0
2018-01-18T06:27:55.440Z,0
2018-01-18T06:28:20.955Z,0
2018-01-18T06:28:46.455Z,0
2018-01-18T06:29:11.901Z,0
2018-01-18T06:29:37.409Z,0
2018-01-18T06:30:02.867Z,0
2018-01-18T06:30:28.328Z,0
2018-01-18T06:31:37.029Z,0
2018-01-18T06:32:02.560Z,0
2018-01-18T06:32:28.044Z,0
2018-01-18T06:32:53.549Z,0
2018-01-18T06:33:19.049Z,0
2018-01-18T06:33:44.549Z,0
2018-01-18T06:34:10.024Z,0
2018-01-18T06:34:35.502Z,0
2018-01-18T06:35:00.997Z,0
2018-01-18T06:35:26.471Z,0
2018-01-18T06:35:51.988Z,0
2018-01-18T06:36:17.442Z,0
2018-01-18T06:36:42.906Z,0
2018-01-18T06:37:08.402Z,0
2018-01-18T06:38:27.332Z,0
2018-01-18T06:38:52.803Z,0
2018-01-18T06:39:18.288Z,0
2018-01-18T06:39:43.752Z,0
2018-01-18T06:40:09.227Z,0
2018-01-18T06:40:34.718Z,0
2018-01-18T06:41:00.224Z,0
2018-01-18T06:42:29.320Z,0
2018-01-18T06:42:54.824Z,0
2018-01-18T06:43:20.300Z,0
2018-01-18T06:43:45.802Z,0
2018-01-18T06:44:11.303Z,0
2018-01-18T06:44:36.796Z,0
2018-01-18T06:45:02.327Z,0
2018-01-18T06:45:27.809Z,0
2018-01-18T06:45:53.298Z,0
2018-01-18T06:46:18.808Z,0
2018-01-18T06:47:47.889Z,0
2018-01-18T06:48:13.374Z,0
2018-01-18T06:48:38.873Z,0
2018-01-18T06:49:04.358Z,0
2018-01-18T06:49:29.859Z,0
2018-01-18T06:49:55.358Z,0
2018-01-18T06:50:20.906Z,0
2018-01-18T06:50:46.377Z,0
2018-01-18T06:51:11.902Z,0
2018-01-18T06:51:37.400Z,0
2018-01-18T06:52:02.890Z,0
2018-01-18T06:52:28.368Z,0
2018-01-18T06:52:53.836Z,0
2018-01-18T06:53:19.317Z,0
2018-01-18T06:53:44.849Z,0
2018-01-18T06:54:10.344Z,0
2018-01-18T06:54:35.827Z,0
2018-01-18T06:55:01.304Z,0
2018-01-18T06:55:26.790Z,0
2018-01-18T06:55:52.283Z,0
2018-01-18T06:56:17.734Z,0
2018-01-18T06:56:43.242Z,0
2018-01-18T06:57:08.734Z,0
2018-01-18T06:57:34.242Z,0
2018-01-18T06:57:59.740Z,0
2018-01-18T06:58:25.197Z,0
2018-01-18T06:58:50.686Z,0
2018-01-18T06:59:16.148Z,0
2018-01-18T06:59:41.625Z,0
2018-01-18T07:00:07.121Z,0
2018-01-18T07:00:32.608Z,0
2018-01-18T07:00:58.103Z,0
2018-01-18T07:01:23.606Z,0
2018-01-18T07:01:49.094Z,0
2018-01-18T07:02:14.566Z,0
2018-01-18T07:03:28.381Z,0
2018-01-18T07:03:53.878Z,0
2018-01-18T07:04:19.370Z,0
2018-01-18T07:04:44.853Z,0
2018-01-18T07:05:10.336Z,0
2018-01-18T07:05:35.856Z,0
2018-01-18T07:06:01.408Z,0
2018-01-18T07:06:26.855Z,0
2018-01-18T07:06:52.355Z,0
2018-01-18T07:07:17.835Z,0
2018-01-18T07:07:43.405Z,0
2018-01-18T07:08:08.931Z,0
2018-01-18T07:08:34.420Z,0
2018-01-18T07:08:59.910Z,0
2018-01-18T07:09:25.429Z,0
2018-01-18T07:09:50.872Z,0
2018-01-18T07:10:59.602Z,0
2018-01-18T07:11:25.135Z,0
2018-01-18T07:11:50.665Z,0
2018-01-18T07:12:16.117Z,0
2018-01-18T07:13:24.794Z,0
2018-01-18T07:13:50.305Z,0
2018-01-18T07:14:15.800Z,0
2018-01-18T07:14:41.259Z,0
2018-01-18T07:16:00.183Z,0
2018-01-18T07:16:25.683Z,0
2018-01-18T07:16:51.201Z,0
2018-01-18T07:17:16.673Z,0
2018-01-18T07:17:42.137Z,0
2018-01-18T07:18:07.628Z,0
2018-01-18T07:18:33.125Z,0
2018-01-18T07:18:58.663Z,0
2018-01-18T07:19:24.148Z,0
2018-01-18T07:20:37.936Z,0
2018-01-18T07:21:03.428Z,0
2018-01-18T07:22:27.434Z,0
2018-01-18T07:22:52.932Z,0
2018-01-18T07:23:18.412Z,0
2018-01-18T07:23:43.865Z,0
2018-01-18T07:24:09.324Z,0
2018-01-18T07:24:34.824Z,0
2018-01-18T07:25:00.327Z,0
2018-01-18T07:25:25.872Z,0
2018-01-18T07:25:51.295Z,0
2018-01-18T07:26:16.769Z,0
2018-01-18T07:26:42.286Z,0
2018-01-18T07:27:56.224Z,0
2018-01-18T07:28:21.746Z,0
2018-01-18T07:29:41.705Z,0
2018-01-18T07:30:07.214Z,0
2018-01-18T07:30:32.708Z,0
2018-01-18T07:30:58.193Z,0
2018-01-18T07:31:23.719Z,0
2018-01-18T07:31:49.198Z,0
2018-01-18T07:32:14.701Z,0
2018-01-18T07:32:40.176Z,0
2018-01-18T07:33:05.672Z,0
2018-01-18T07:33:31.180Z,0
2018-01-18T07:33:56.696Z,0
2018-01-18T07:34:22.201Z,0
2018-01-18T07:34:47.697Z,0
2018-01-18T07:35:13.174Z,0
2018-01-18T07:35:38.673Z,0
2018-01-18T07:36:04.124Z,0
2018-01-18T07:36:29.670Z,0
2018-01-18T07:36:55.130Z,0
2018-01-18T07:37:20.596Z,0
2018-01-18T07:37:46.105Z,5
2018-01-18T07:38:11.705Z,5
2018-01-18T07:38:37.370Z,0
2018-01-18T07:39:02.982Z,5
2018-01-18T07:40:21.932Z,5
2018-01-18T07:40:47.426Z,5
2018-01-18T07:41:12.935Z,5
2018-01-18T07:41:38.421Z,5
2018-01-18T07:42:03.915Z,5
2018-01-18T07:42:29.430Z,5
2018-01-18T07:42:54.907Z,5
2018-01-18T07:43:20.352Z,5
2018-01-18T07:43:45.840Z,5
2018-01-18T07:44:11.342Z,5
2018-01-18T07:44:36.839Z,5
2018-01-18T07:45:02.293Z,0
2018-01-18T07:45:27.776Z,0
2018-01-18T07:45:53.300Z,0
2018-01-18T07:46:18.824Z,0
2018-01-18T07:46:44.340Z,0
2018-01-18T07:47:09.763Z,0
2018-01-18T07:47:35.260Z,0
2018-01-18T07:48:00.707Z,0
2018-01-18T07:48:26.200Z,0
2018-01-18T07:48:51.714Z,5
2018-01-18T07:49:17.173Z,5
2018-01-18T07:50:36.072Z,5
2018-01-18T07:51:01.582Z,5
2018-01-18T07:51:27.070Z,5
2018-01-18T07:51:52.580Z,5
2018-01-18T07:52:18.067Z,0
2018-01-18T07:52:43.549Z,0
2018-01-18T07:53:09.039Z,0
2018-01-18T07:53:34.488Z,0
2018-01-18T07:53:59.984Z,0
2018-01-18T07:54:25.477Z,0
2018-01-18T07:55:39.259Z,5
2018-01-18T07:56:04.754Z,5
2018-01-18T07:56:30.250Z,5
2018-01-18T07:56:55.747Z,5
2018-01-18T07:57:21.251Z,5
2018-01-18T07:57:46.736Z,5
2018-01-18T07:58:12.229Z,0
2018-01-18T07:58:37.704Z,0
2018-01-18T07:59:03.205Z,0
2018-01-18T07:59:28.674Z,0
2018-01-18T07:59:54.147Z,0
2018-01-18T08:01:23.248Z,0
2018-01-18T08:01:48.733Z,0
2018-01-18T08:02:14.217Z,5
2018-01-18T08:02:39.745Z,5
2018-01-18T08:03:05.222Z,0
2018-01-18T08:03:30.720Z,0
2018-01-18T08:03:56.214Z,0
2018-01-18T08:04:21.678Z,0
2018-01-18T08:04:47.200Z,5
2018-01-18T08:05:12.702Z,5
2018-01-18T08:05:38.198Z,5
2018-01-18T08:06:03.672Z,10
2018-01-18T08:06:29.169Z,10
2018-01-18T08:06:54.649Z,15
2018-01-18T08:07:20.153Z,20
2018-01-18T08:07:45.645Z,25
2018-01-18T08:08:11.107Z,25
2018-01-18T08:09:40.215Z,30
2018-01-18T08:10:05.732Z,30
2018-01-18T08:10:31.247Z,30
2018-01-18T08:10:56.718Z,30
2018-01-18T08:11:22.182Z,25
2018-01-18T08:11:47.662Z,25
2018-01-18T08:12:13.175Z,30
2018-01-18T08:13:43.245Z,40
2018-01-18T08:14:08.708Z,45
2018-01-18T08:14:34.216Z,50
2018-01-18T08:14:59.692Z,55
2018-01-18T08:15:25.211Z,55
2018-01-18T08:15:50.676Z,55
2018-01-18T08:16:16.152Z,65
2018-01-18T08:16:41.687Z,70
2018-01-18T08:17:07.096Z,55
2018-01-18T08:17:32.566Z,45
2018-01-18T08:17:58.069Z,40
2018-01-18T08:18:23.562Z,25
2018-01-18T08:18:49.051Z,25
2018-01-18T08:19:14.542Z,30
2018-01-18T08:19:40.027Z,35
2018-01-18T08:20:05.581Z,45
2018-01-18T08:20:30.998Z,55
2018-01-18T08:20:56.476Z,60
2018-01-18T08:21:21.985Z,60
2018-01-18T08:21:47.530Z,70
2018-01-18T08:22:13.006Z,75
2018-01-18T08:23:31.888Z,80
2018-01-18T08:23:57.376Z,75
2018-01-18T08:24:22.864Z,60
2018-01-18T08:24:48.337Z,55
2018-01-18T08:25:13.885Z,40
2018-01-18T08:25:39.367Z,30
2018-01-18T08:26:04.870Z,30
2018-01-18T08:26:30.348Z,35
2018-01-18T08:26:55.858Z,35
2018-01-18T08:27:21.319Z,35
2018-01-18T08:27:46.805Z,35
2018-01-18T08:28:12.316Z,40
2018-01-18T08:28:37.809Z,40
2018-01-18T08:29:03.313Z,40
2018-01-18T08:29:28.789Z,40
2018-01-18T08:29:54.316Z,45
2018-01-18T08:30:19.775Z,50
2018-01-18T08:30:45.294Z,55
2018-01-18T08:31:10.786Z,55
2018-01-18T08:31:36.246Z,55
2018-01-18T08:32:01.741Z,55
2018-01-18T08:32:27.261Z,55
2018-01-18T08:32:52.755Z,65
2018-01-18T08:33:18.221Z,70
2018-01-18T08:33:43.718Z,70
2018-01-18T08:34:09.185Z,60
2018-01-18T08:34:34.669Z,60
2018-01-18T08:35:00.148Z,50
2018-01-18T08:35:25.634Z,45
2018-01-18T08:35:51.125Z,35
2018-01-18T08:36:59.840Z,25
2018-01-18T08:37:25.327Z,25
2018-01-18T08:37:50.820Z,25
2018-01-18T08:38:16.314Z,30
2018-01-18T08:39:35.198Z,45
2018-01-18T08:40:00.709Z,50
2018-01-18T08:40:26.172Z,55
2018-01-18T08:40:51.668Z,55
2018-01-18T08:41:17.149Z,55
2018-01-18T08:41:42.619Z,60
2018-01-18T08:42:08.153Z,60
2018-01-18T08:42:33.646Z,60
2018-01-18T08:44:02.732Z,70
2018-01-18T08:44:28.220Z,65
2018-01-18T08:44:53.685Z,65
2018-01-18T08:45:19.185Z,70
2018-01-18T08:45:44.675Z,75
2018-01-18T08:47:03.599Z,55
2018-01-18T08:47:29.094Z,50
2018-01-18T08:47:54.600Z,55
2018-01-18T08:48:20.098Z,55
2018-01-18T08:49:44.373Z,20
2018-01-18T08:50:09.871Z,15
2018-01-18T08:50:35.352Z,10
2018-01-18T08:51:00.845Z,10
2018-01-18T08:51:26.339Z,10
2018-01-18T08:51:51.805Z,15
2018-01-18T08:52:17.283Z,20
2018-01-18T08:53:31.041Z,30
2018-01-18T08:53:56.564Z,25
2018-01-18T08:54:22.031Z,20
2018-01-18T08:54:47.529Z,20
2018-01-18T08:55:13.028Z,20
2018-01-18T08:55:38.855Z,20
2018-01-18T08:56:04.357Z,20
2018-01-18T08:56:29.860Z,20
2018-01-18T08:56:55.388Z,15
2018-01-18T08:57:20.888Z,15
2018-01-18T08:57:46.388Z,15
2018-01-18T08:58:11.858Z,10
2018-01-18T08:58:37.403Z,10
2018-01-18T08:59:02.881Z,10
2018-01-18T08:59:28.353Z,10
2018-01-18T08:59:53.816Z,10
2018-01-18T09:00:19.306Z,10
2018-01-18T09:00:44.823Z,10
2018-01-18T09:02:08.842Z,10
2018-01-18T09:02:34.328Z,10
2018-01-18T09:02:59.810Z,10
2018-01-18T09:03:25.302Z,10
2018-01-18T09:03:50.809Z,15
2018-01-18T09:04:16.293Z,15
2018-01-18T09:04:41.805Z,15
2018-01-18T09:05:07.265Z,25
2018-01-18T09:05:32.802Z,35
2018-01-18T09:05:58.303Z,40
2018-01-18T09:06:23.809Z,50
2018-01-18T09:07:37.631Z,55
2018-01-18T09:08:03.113Z,55
2018-01-18T09:08:28.602Z,45
2018-01-18T09:08:54.110Z,30
2018-01-18T09:09:19.575Z,35
2018-01-18T09:09:45.039Z,55
2018-01-18T09:10:10.543Z,55
2018-01-18T09:10:36.079Z,55
2018-01-18T09:11:01.600Z,70
2018-01-18T09:11:27.118Z,75
2018-01-18T09:11:52.690Z,75
2018-01-18T09:12:18.218Z,50
2018-01-18T09:12:43.693Z,30
2018-01-18T09:13:09.183Z,25
2018-01-18T09:13:34.688Z,30
2018-01-18T09:14:00.181Z,35
2018-01-18T09:14:25.703Z,60
2018-01-18T09:14:51.177Z,80
2018-01-18T09:15:16.618Z,75
2018-01-18T09:15:42.102Z,65
2018-01-18T09:16:07.646Z,60
2018-01-18T09:16:33.130Z,70
2018-01-18T09:16:58.668Z,65
2018-01-18T09:17:24.113Z,65
2018-01-18T09:17:49.579Z,80
2018-01-18T09:18:15.111Z,85
2018-01-18T09:18:40.615Z,95
2018-01-18T09:19:06.109Z,100
2018-01-18T09:19:31.671Z,110
2018-01-18T09:19:57.156Z,115
2018-01-18T09:20:22.666Z,110
2018-01-18T09:20:48.250Z,110
2018-01-18T09:22:07.521Z,90
2018-01-18T09:22:33.029Z,90
2018-01-18T09:22:58.489Z,90
2018-01-18T09:23:23.976Z,95
2018-01-18T09:23:49.480Z,95
2018-01-18T09:24:14.976Z,90
2018-01-18T09:24:40.449Z,90
2018-01-18T09:25:05.965Z,80
2018-01-18T09:25:31.499Z,80
2018-01-18T09:25:57.015Z,75
2018-01-18T09:26:22.490Z,80
2018-01-18T09:26:47.970Z,80
2018-01-18T09:27:13.470Z,75
2018-01-18T09:27:38.996Z,70
2018-01-18T09:28:04.558Z,70
2018-01-18T09:28:29.984Z,80
2018-01-18T09:28:55.468Z,85
2018-01-18T09:29:20.925Z,80
2018-01-18T09:29:46.417Z,80
2018-01-18T09:30:11.994Z,85
2018-01-18T09:30:37.473Z,85
2018-01-18T09:31:03.006Z,75
2018-01-18T09:31:28.703Z,65
2018-01-18T09:31:54.119Z,65
2018-01-18T09:32:19.618Z,70
2018-01-18T09:32:45.125Z,70
2018-01-18T09:33:10.638Z,65
2018-01-18T09:33:36.458Z,60
2018-01-18T09:34:01.995Z,55
2018-01-18T09:34:27.477Z,50
2018-01-18T09:34:52.956Z,55
2018-01-18T09:35:18.426Z,80
2018-01-18T09:35:43.923Z,95
2018-01-18T09:36:09.457Z,110
2018-01-18T09:36:35.099Z,125
2018-01-18T09:37:00.480Z,145
2018-01-18T09:37:26.003Z,160
2018-01-18T09:37:51.540Z,135
2018-01-18T09:38:17.019Z,110
2018-01-18T09:38:42.558Z,105
2018-01-18T09:39:08.129Z,110
2018-01-18T09:39:33.608Z,105
2018-01-18T09:39:59.064Z,95
2018-01-18T09:41:18.048Z,110
2018-01-18T09:41:43.533Z,135
2018-01-18T09:42:09.018Z,150
2018-01-18T09:43:38.113Z,120
2018-01-18T09:44:03.589Z,125
2018-01-18T09:44:29.075Z,110
2018-01-18T09:44:54.567Z,95
2018-01-18T09:45:20.066Z,80
2018-01-18T09:45:45.563Z,75
2018-01-18T09:46:11.029Z,65
2018-01-18T09:46:36.541Z,65
2018-01-18T09:47:02.026Z,70
2018-01-18T09:47:27.497Z,70
2018-01-18T09:47:53.050Z,70
2018-01-18T09:48:18.460Z,55
2018-01-18T09:48:43.962Z,65
2018-01-18T09:49:09.456Z,65
2018-01-18T09:49:35.006Z,60
2018-01-18T09:50:00.481Z,55
2018-01-18T09:50:25.996Z,55
2018-01-18T09:50:51.475Z,55
2018-01-18T09:51:17.006Z,55
2018-01-18T09:51:42.515Z,45
2018-01-18T09:52:08.017Z,50
2018-01-18T09:52:33.494Z,55
2018-01-18T09:52:59.000Z,50
2018-01-18T09:53:24.474Z,40
2018-01-18T09:53:50.019Z,35
2018-01-18T09:54:15.471Z,45
2018-01-18T09:54:40.955Z,50
2018-01-18T09:55:06.413Z,45
2018-01-18T09:55:31.951Z,45
2018-01-18T09:55:57.476Z,50
2018-01-18T09:56:22.947Z,75
2018-01-18T09:56:48.474Z,75
2018-01-18T09:57:13.913Z,55
2018-01-18T09:57:39.473Z,45
2018-01-18T09:58:04.962Z,60
2018-01-18T09:58:30.426Z,55
2018-01-18T09:58:55.885Z,45
2018-01-18T09:59:21.351Z,30
2018-01-18T09:59:46.864Z,30
2018-01-18T10:00:12.356Z,30
2018-01-18T10:00:37.813Z,30
2018-01-18T10:01:03.326Z,35
2018-01-18T10:01:28.876Z,45
2018-01-18T10:01:54.323Z,60
2018-01-18T10:02:19.785Z,75
2018-01-18T10:02:45.255Z,75
2018-01-18T10:03:10.710Z,70
2018-01-18T10:03:36.241Z,60
2018-01-18T10:04:01.741Z,75
2018-01-18T10:04:27.248Z,75
2018-01-18T10:04:53.021Z,55
2018-01-18T10:05:18.326Z,35
2018-01-18T10:05:44.128Z,45
2018-01-18T10:06:09.599Z,55
2018-01-18T10:06:35.100Z,80
2018-01-18T10:07:00.570Z,80
2018-01-18T10:07:26.043Z,55
2018-01-18T10:07:51.502Z,65
2018-01-18T10:08:17.021Z,65
2018-01-18T10:08:42.465Z,55
2018-01-18T10:09:07.994Z,50
2018-01-18T10:09:33.538Z,50
2018-01-18T10:09:59.038Z,55
2018-01-18T10:10:24.544Z,50
2018-01-18T10:10:50.022Z,55
2018-01-18T10:11:15.481Z,75
2018-01-18T10:11:40.904Z,70
2018-01-18T10:12:06.369Z,75
2018-01-18T10:12:31.849Z,85
2018-01-18T10:12:57.327Z,95
2018-01-18T10:13:22.880Z,80
2018-01-18T10:13:48.354Z,55
2018-01-18T10:15:07.238Z,45
2018-01-18T10:15:32.744Z,40
2018-01-18T10:15:58.200Z,45
2018-01-18T10:17:11.991Z,70
2018-01-18T10:17:37.490Z,60
2018-01-18T10:18:02.971Z,70
2018-01-18T10:18:28.486Z,60
2018-01-18T10:18:53.954Z,50
2018-01-18T10:19:19.417Z,65
2018-01-18T10:19:44.874Z,75
2018-01-18T10:20:10.381Z,70
2018-01-18T10:20:35.841Z,85
2018-01-18T10:21:01.411Z,90
2018-01-18T10:21:26.873Z,70
2018-01-18T10:21:52.382Z,80
2018-01-18T10:22:18.308Z,90
2018-01-18T10:22:44.141Z,60
2018-01-18T10:23:09.880Z,45
2018-01-18T10:23:35.364Z,65
2018-01-18T10:24:00.920Z,90
2018-01-18T10:24:26.375Z,70
2018-01-18T10:24:51.883Z,45
2018-01-18T10:25:17.423Z,55
2018-01-18T10:25:42.976Z,100
2018-01-18T10:26:08.412Z,130
2018-01-18T10:26:33.884Z,150
2018-01-18T10:26:59.490Z,115
2018-01-18T10:27:24.916Z,95
2018-01-18T10:27:50.413Z,110
2018-01-18T10:28:15.958Z,145
2018-01-18T10:28:41.782Z,175
2018-01-18T10:29:07.477Z,150
2018-01-18T10:29:33.116Z,145
2018-01-18T10:29:58.719Z,125
2018-01-18T10:30:24.198Z,95
2018-01-18T10:30:49.639Z,95
2018-01-18T10:31:15.121Z,115
2018-01-18T10:31:40.669Z,135
2018-01-18T10:32:06.159Z,135
2018-01-18T10:32:31.612Z,115
2018-01-18T10:32:57.135Z,125
2018-01-18T10:33:22.561Z,120
2018-01-18T10:33:48.114Z,90
2018-01-18T10:34:13.582Z,80
2018-01-18T10:34:39.062Z,125
2018-01-18T10:35:04.548Z,115
2018-01-18T10:35:29.986Z,85
2018-01-18T10:35:55.452Z,75
2018-01-18T10:36:20.942Z,65
2018-01-18T10:36:46.405Z,45
2018-01-18T10:37:11.920Z,45
2018-01-18T10:37:37.377Z,50
2018-01-18T10:38:02.912Z,55
2018-01-18T10:38:28.376Z,55
2018-01-18T10:38:53.846Z,70
2018-01-18T10:39:19.324Z,80
2018-01-18T10:39:44.791Z,75
2018-01-18T10:40:10.259Z,95
2018-01-18T10:40:35.762Z,90
2018-01-18T10:41:01.256Z,105
2018-01-18T10:41:26.746Z,95
2018-01-18T10:41:52.229Z,90
2018-01-18T10:42:17.706Z,70
2018-01-18T10:42:43.203Z,70
2018-01-18T10:43:08.659Z,65
2018-01-18T10:43:34.130Z,55
2018-01-18T10:43:59.612Z,50
2018-01-18T10:44:25.090Z,55
2018-01-18T10:44:50.539Z,40
2018-01-18T10:45:16.033Z,45
2018-01-18T10:45:41.488Z,50
2018-01-18T10:46:06.997Z,55
2018-01-18T10:46:32.463Z,55
2018-01-18T10:46:57.950Z,45
2018-01-18T10:47:23.436Z,60
2018-01-18T10:47:48.913Z,50
2018-01-18T10:48:14.376Z,65
2018-01-18T10:48:39.924Z,75
2018-01-18T10:49:05.399Z,65
2018-01-18T10:49:30.890Z,55
2018-01-18T10:49:56.353Z,75
2018-01-18T10:50:21.859Z,75
2018-01-18T10:50:47.337Z,55
2018-01-18T10:51:12.782Z,45
2018-01-18T10:52:41.884Z,45
2018-01-18T10:53:07.374Z,55
2018-01-18T10:53:32.870Z,50
2018-01-18T10:53:58.362Z,55
2018-01-18T10:54:23.838Z,55
2018-01-18T10:54:49.302Z,55
2018-01-18T10:55:14.821Z,85
2018-01-18T10:55:40.285Z,65
2018-01-18T10:56:05.752Z,40
2018-01-18T10:56:31.238Z,50
2018-01-18T10:56:56.721Z,70
2018-01-18T10:57:22.200Z,80
2018-01-18T10:57:47.656Z,65
2018-01-18T10:58:13.143Z,55
2018-01-18T10:58:38.605Z,60
2018-01-18T10:59:04.044Z,65
2018-01-18T10:59:29.505Z,55
2018-01-18T10:59:55.024Z,55
2018-01-18T11:00:20.496Z,60
2018-01-18T11:01:39.576Z,65
2018-01-18T11:02:05.052Z,70
2018-01-18T11:02:30.539Z,80
2018-01-18T11:02:56.029Z,70
2018-01-18T11:03:21.534Z,55
2018-01-18T11:03:47.018Z,50
2018-01-18T11:04:12.479Z,45
2018-01-18T11:04:37.953Z,50
2018-01-18T11:05:03.443Z,50
2018-01-18T11:05:28.898Z,50
2018-01-18T11:05:54.372Z,50
2018-01-18T11:07:03.063Z,65
2018-01-18T11:07:28.558Z,55
2018-01-18T11:07:54.070Z,65
2018-01-18T11:08:19.507Z,65
2018-01-18T11:08:44.960Z,45
2018-01-18T11:09:10.476Z,45
2018-01-18T11:09:35.950Z,40
2018-01-18T11:10:01.427Z,40
2018-01-18T11:10:26.898Z,55
2018-01-18T11:10:52.397Z,45
2018-01-18T11:11:17.852Z,70
2018-01-18T11:11:43.300Z,75
2018-01-18T11:12:08.770Z,85
2018-01-18T11:12:34.250Z,65
2018-01-18T11:12:59.743Z,75
2018-01-18T11:14:28.813Z,60
2018-01-18T11:14:54.297Z,45
2018-01-18T11:15:19.809Z,50
2018-01-18T11:15:45.267Z,50
2018-01-18T11:16:10.711Z,60
2018-01-18T11:16:36.198Z,60
2018-01-18T11:17:01.664Z,70
2018-01-18T11:17:27.151Z,75
2018-01-18T11:17:52.624Z,70
2018-01-18T11:18:18.091Z,75
2018-01-18T11:18:43.590Z,70
2018-01-18T11:19:09.046Z,90
2018-01-18T11:19:34.556Z,85
2018-01-18T11:20:00.037Z,65
2018-01-18T11:20:25.518Z,70
2018-01-18T11:20:50.970Z,75
2018-01-18T11:21:16.477Z,80
2018-01-18T11:21:41.992Z,65
2018-01-18T11:22:07.489Z,75
2018-01-18T11:22:32.967Z,60
2018-01-18T11:22:58.500Z,60
2018-01-18T11:23:24.007Z,70
2018-01-18T11:23:49.494Z,80
2018-01-18T11:24:14.964Z,70
2018-01-18T11:24:40.487Z,60
2018-01-18T11:25:05.957Z,55
2018-01-18T11:25:31.471Z,85
2018-01-18T11:25:56.939Z,70
2018-01-18T11:26:22.445Z,60
2018-01-18T11:26:47.941Z,55
2018-01-18T11:27:13.416Z,50
2018-01-18T11:27:38.890Z,55
2018-01-18T11:28:04.363Z,55
2018-01-18T11:28:29.848Z,60
2018-01-18T11:28:55.322Z,50
2018-01-18T11:30:04.052Z,55
2018-01-18T11:30:29.546Z,45
2018-01-18T11:30:55.034Z,45
2018-01-18T11:31:20.526Z,45
2018-01-18T11:31:46.031Z,50
2018-01-18T11:32:11.536Z,65
2018-01-18T11:32:37.015Z,55
2018-01-18T11:34:01.016Z,55
2018-01-18T11:34:26.494Z,45
2018-01-18T11:35:55.626Z,65
2018-01-18T11:36:21.029Z,70
2018-01-18T11:36:46.484Z,55
2018-01-18T11:37:55.168Z,40
2018-01-18T11:38:20.645Z,55
2018-01-18T11:38:46.127Z,65
2018-01-18T11:39:11.600Z,60
2018-01-18T11:39:37.055Z,60
2018-01-18T11:40:02.560Z,65
2018-01-18T11:40:28.045Z,75
2018-01-18T11:40:53.503Z,85
2018-01-18T11:41:18.991Z,75
2018-01-18T11:42:27.664Z,95
2018-01-18T11:42:53.157Z,80
2018-01-18T11:43:18.643Z,80
2018-01-18T11:43:44.136Z,80
2018-01-18T11:44:09.592Z,100
2018-01-18T11:44:35.156Z,85
2018-01-18T11:45:00.603Z,85
2018-01-18T11:45:26.050Z,60
2018-01-18T11:46:55.158Z,95
2018-01-18T11:47:20.606Z,100
2018-01-18T11:47:46.108Z,75
2018-01-18T11:48:11.581Z,85
2018-01-18T11:49:25.364Z,90
2018-01-18T11:49:50.832Z,95
2018-01-18T11:50:16.344Z,90
2018-01-18T11:50:41.802Z,115
2018-01-18T11:51:07.276Z,80
2018-01-18T11:51:32.745Z,75
2018-01-18T11:51:58.240Z,105
2018-01-18T11:52:23.698Z,105
2018-01-18T11:52:49.217Z,110
2018-01-18T11:53:14.706Z,130
2018-01-18T11:53:40.190Z,120
2018-01-18T11:54:05.739Z,110
2018-01-18T11:54:31.225Z,90
2018-01-18T11:56:00.363Z,130
2018-01-18T11:56:25.816Z,110
2018-01-18T11:56:51.310Z,100
2018-01-18T11:57:16.817Z,115
2018-01-18T11:57:42.288Z,125
2018-01-18T11:58:07.782Z,130
2018-01-18T11:58:33.294Z,120
2018-01-18T11:58:58.798Z,140
2018-01-18T11:59:24.302Z,115
2018-01-18T11:59:49.781Z,105
2018-01-18T12:00:15.262Z,105
2018-01-18T12:00:40.757Z,120